createdAt,value
2022-12-01T00:00:43.569Z,99101.22
2022-12-01T00:03:46.258Z,99112.06
2022-12-01T00:06:50.905Z,99108.03
2022-12-01T00:10:11.174Z,99108.03
2022-12-01T00:13:14.095Z,99110.22
2022-12-01T00:16:18.024Z,99101.25
2022-12-01T00:19:20.668Z,99101.81
2022-12-01T00:22:25.147Z,99109.63
2022-12-01T00:25:28.933Z,99108.56
2022-12-01T00:28:31.773Z,99105.03
2022-12-01T00:31:35.839Z,99100.94
2022-12-01T00:34:39.339Z,99108.28
2022-12-01T00:37:43.500Z,99104.47
2022-12-01T00:40:46.346Z,99110.69
2022-12-01T00:43:49.156Z,99103.94
2022-12-01T00:46:51.918Z,99098.75
2022-12-01T00:49:54.787Z,99101.75
2022-12-01T00:52:59.181Z,99102.03
2022-12-01T00:56:01.818Z,99105.81
2022-12-01T00:59:04.811Z,99107.16
2022-12-01T01:02:08.861Z,99097.94
2022-12-01T01:05:11.687Z,99109.59
2022-12-01T01:08:16.349Z,99101.75
2022-12-01T01:11:22.006Z,99112.00
2022-12-01T01:14:25.419Z,99104.97
2022-12-01T01:17:28.474Z,99109.06
2022-12-01T01:20:31.565Z,99114.19
2022-12-01T01:23:35.988Z,99111.75
2022-12-01T01:26:39.396Z,99112.06
2022-12-01T01:29:42.495Z,99122.34
2022-12-01T01:32:45.226Z,99116.66
2022-12-01T01:35:47.993Z,99116.16
2022-12-01T01:38:53.389Z,99124.00
2022-12-01T01:41:56.034Z,99119.09
2022-12-01T01:44:59.677Z,99109.66
2022-12-01T01:48:03.708Z,99110.19
2022-12-01T01:51:07.483Z,99120.19
2022-12-01T01:54:15.773Z,99119.63
2022-12-01T01:57:24.330Z,99122.63
2022-12-01T02:00:27.388Z,99113.97
2022-12-01T02:03:30.760Z,99118.84
2022-12-01T02:06:33.778Z,99122.91
2022-12-01T02:09:38.115Z,99120.72
2022-12-01T02:12:50.529Z,99121.28
2022-12-01T02:15:59.588Z,99119.94
2022-12-01T02:19:16.747Z,99109.94
2022-12-01T02:22:25.282Z,99107.22
2022-12-01T02:25:38.050Z,99109.94
2022-12-01T02:28:55.418Z,99099.63
2022-12-01T02:32:02.967Z,99106.69
2022-12-01T02:35:14.094Z,99116.97
2022-12-01T02:38:23.906Z,99113.44
2022-12-01T02:41:30.608Z,99116.97
2022-12-01T02:44:35.698Z,99115.88
2022-12-01T02:47:41.360Z,99104.53
2022-12-01T02:50:44.872Z,99112.13
2022-12-01T02:53:47.970Z,99108.59
2022-12-01T02:56:53.138Z,99114.81
2022-12-01T02:59:56.792Z,99112.94
2022-12-01T03:03:27.244Z,99109.97
2022-12-01T03:06:38.115Z,99117.00
2022-12-01T03:09:48.637Z,99119.97
2022-12-01T03:12:59.669Z,99097.78
2022-12-01T03:16:07.401Z,99105.09
2022-12-01T03:19:14.867Z,99099.66
2022-12-01T03:22:24.913Z,99097.78
2022-12-01T03:25:29.718Z,99098.34
2022-12-01T03:28:34.755Z,99104.56
2022-12-01T03:31:41.016Z,99104.53
2022-12-01T03:34:50.071Z,99098.06
2022-12-01T03:37:56.680Z,99100.47
2022-12-01T03:41:02.242Z,99091.56
2022-12-01T03:44:09.196Z,99094.78
2022-12-01T03:47:14.418Z,99093.16
2022-12-01T03:50:19.408Z,99102.38
2022-12-01T03:53:26.081Z,99094.53
2022-12-01T03:56:33.747Z,99099.13
2022-12-01T03:59:37.523Z,99102.66
2022-12-01T04:02:40.892Z,99104.03
2022-12-01T04:05:45.053Z,99105.34
2022-12-01T04:08:47.804Z,99099.41
2022-12-01T04:12:08.543Z,99101.84
2022-12-01T04:15:13.191Z,99102.66
2022-12-01T04:18:15.962Z,99107.25
2022-12-01T04:21:20.663Z,99108.06
2022-12-01T04:24:23.296Z,99105.88
2022-12-01T04:27:26.046Z,99107.78
2022-12-01T04:30:28.905Z,99106.44
2022-12-01T04:33:31.533Z,99106.44
2022-12-01T04:36:35.981Z,99110.78
2022-12-01T04:39:39.242Z,99105.63
2022-12-01T04:42:41.825Z,99106.69
2022-12-01T04:45:44.670Z,99111.56
2022-12-01T04:48:47.558Z,99119.16
2022-12-01T04:51:51.969Z,99112.94
2022-12-01T04:54:54.853Z,99111.03
2022-12-01T04:57:58.040Z,99110.50
2022-12-01T05:01:03.004Z,99113.75
2022-12-01T05:04:05.910Z,99114.84
2022-12-01T05:07:10.388Z,99109.97
2022-12-01T05:10:14.246Z,99112.94
2022-12-01T05:13:17.360Z,99114.56
2022-12-01T05:16:21.733Z,99118.09
2022-12-01T05:19:43.821Z,99116.72
2022-12-01T05:23:05.674Z,99122.97
2022-12-01T05:26:10.130Z,99116.72
2022-12-01T05:29:13.071Z,99116.47
2022-12-01T05:32:15.676Z,99132.97
2022-12-01T05:35:18.505Z,99129.19
2022-12-01T05:38:22.703Z,99127.81
2022-12-01T05:41:25.350Z,99126.19
2022-12-01T05:44:28.102Z,99121.59
2022-12-01T05:47:31.358Z,99126.72
2022-12-01T05:50:34.179Z,99121.03
2022-12-01T05:53:39.635Z,99125.38
2022-12-01T05:56:42.592Z,99121.06
2022-12-01T05:59:45.261Z,99122.94
2022-12-01T06:02:48.268Z,99130.81
2022-12-01T06:05:51.602Z,99133.75
2022-12-01T06:08:55.782Z,99129.44
2022-12-01T06:11:58.514Z,99125.38
2022-12-01T06:15:01.243Z,99127.81
2022-12-01T06:18:03.904Z,99126.72
2022-12-01T06:21:07.681Z,99137.00
2022-12-01T06:24:12.418Z,99127.00
2022-12-01T06:27:15.142Z,99130.50
2022-12-01T06:30:18.135Z,99142.69
2022-12-01T06:33:20.891Z,99137.31
2022-12-01T06:36:23.613Z,99147.56
2022-12-01T06:39:27.746Z,99141.09
2022-12-01T06:42:31.613Z,99142.16
2022-12-01T06:45:34.220Z,99147.31
2022-12-01T06:48:37.694Z,99152.16
2022-12-01T06:51:40.998Z,99150.53
2022-12-01T06:54:45.116Z,99151.34
2022-12-01T06:57:48.950Z,99152.16
2022-12-01T07:00:52.551Z,99151.63
2022-12-01T07:03:55.853Z,99156.50
2022-12-01T07:06:58.826Z,99161.91
2022-12-01T07:10:02.970Z,99164.59
2022-12-01T07:13:06.120Z,99165.41
2022-12-01T07:16:10.520Z,99165.16
2022-12-01T07:19:13.645Z,99163.25
2022-12-01T07:22:17.046Z,99163.56
2022-12-01T07:25:22.344Z,99164.09
2022-12-01T07:28:25.776Z,99161.91
2022-12-01T07:31:28.574Z,99168.94
2022-12-01T07:34:31.758Z,99166.25
2022-12-01T07:37:35.037Z,99175.44
2022-12-01T07:40:39.200Z,99169.75
2022-12-01T07:43:42.748Z,99166.25
2022-12-01T07:46:46.038Z,99175.44
2022-12-01T07:49:49.114Z,99174.34
2022-12-01T07:52:52.748Z,99176.81
2022-12-01T07:55:57.398Z,99178.69
2022-12-01T07:59:00.148Z,99181.97
2022-12-01T08:02:03.033Z,99176.53
2022-12-01T08:05:06.755Z,99174.09
2022-12-01T08:08:09.596Z,99177.63
2022-12-01T08:11:15.695Z,99185.19
2022-12-01T08:14:18.793Z,99178.97
2022-12-01T08:17:22.668Z,99191.16
2022-12-01T08:20:25.443Z,99191.69
2022-12-01T08:23:28.530Z,99198.72
2022-12-01T08:26:33.175Z,99206.84
2022-12-01T08:29:36.572Z,99203.31
2022-12-01T08:32:39.758Z,99203.31
2022-12-01T08:35:42.530Z,99204.41
2022-12-01T08:38:45.760Z,99205.78
2022-12-01T08:41:50.203Z,99201.97
2022-12-01T08:44:53.286Z,99205.22
2022-12-01T08:47:58.835Z,99201.97
2022-12-01T08:51:09.047Z,99204.97
2022-12-01T08:54:12.702Z,99202.00
2022-12-01T08:57:16.607Z,99204.16
2022-12-01T09:00:19.259Z,99204.13
2022-12-01T09:03:22.229Z,99206.31
2022-12-01T09:06:25.064Z,99205.50
2022-12-01T09:09:30.076Z,99202.00
2022-12-01T09:12:34.650Z,99204.69
2022-12-01T09:15:37.464Z,99202.50
2022-12-01T09:18:41.476Z,99199.28
2022-12-01T09:21:45.294Z,99202.25
2022-12-01T09:24:47.783Z,99212.25
2022-12-01T09:27:51.760Z,99212.53
2022-12-01T09:30:54.485Z,99215.25
2022-12-01T09:33:57.729Z,99216.59
2022-12-01T09:37:00.394Z,99219.84
2022-12-01T09:40:03.249Z,99214.44
2022-12-01T09:43:13.425Z,99212.53
2022-12-01T09:46:21.432Z,99213.31
2022-12-01T09:49:26.940Z,99205.19
2022-12-01T09:52:33.458Z,99202.50
2022-12-01T09:55:36.764Z,99207.38
2022-12-01T09:58:41.057Z,99200.34
2022-12-01T10:01:45.437Z,99202.50
2022-12-01T10:04:49.750Z,99194.38
2022-12-01T10:07:56.421Z,99199.00
2022-12-01T10:11:03.049Z,99191.41
2022-12-01T10:14:12.067Z,99184.59
2022-12-01T10:17:26.077Z,99182.97
2022-12-01T10:20:35.125Z,99183.25
2022-12-01T10:23:49.160Z,99175.72
2022-12-01T10:26:56.868Z,99180.56
2022-12-01T10:30:06.556Z,99170.03
2022-12-01T10:33:18.167Z,99171.94
2022-12-01T10:36:21.269Z,99166.19
2022-12-01T10:39:29.524Z,99163.47
2022-12-01T10:42:37.135Z,99163.50
2022-12-01T10:45:45.649Z,99165.06
2022-12-01T10:48:54.759Z,99159.41
2022-12-01T10:51:58.697Z,99159.69
2022-12-01T10:55:01.566Z,99164.03
2022-12-01T10:58:09.415Z,99154.88
2022-12-01T11:01:19.665Z,99153.22
2022-12-01T11:04:30.551Z,99152.66
2022-12-01T11:07:34.941Z,99140.75
2022-12-01T11:10:39.187Z,99149.38
2022-12-01T11:13:43.418Z,99146.63
2022-12-01T11:16:50.048Z,99139.00
2022-12-01T11:19:53.518Z,99142.16
2022-12-01T11:23:25.656Z,99137.91
2022-12-01T11:26:30.478Z,99131.31
2022-12-01T11:29:36.622Z,99120.50
2022-12-01T11:32:41.424Z,99125.75
2022-12-01T11:35:49.078Z,99124.38
2022-12-01T11:38:56.691Z,99124.06
2022-12-01T11:42:02.306Z,99116.22
2022-12-01T11:45:09.153Z,99118.13
2022-12-01T11:48:25.660Z,99122.53
2022-12-01T11:51:32.936Z,99114.28
2022-12-01T11:54:35.533Z,99115.06
2022-12-01T11:57:40.335Z,99115.69
2022-12-01T12:00:48.171Z,99112.50
2022-12-01T12:04:00.208Z,99098.78
2022-12-01T12:07:10.889Z,99111.91
2022-12-01T12:10:24.116Z,99105.53
2022-12-01T12:13:54.829Z,99099.91
2022-12-01T12:17:14.634Z,99097.22
2022-12-01T12:20:41.395Z,99101.72
2022-12-01T12:23:58.416Z,99100.25
2022-12-01T12:27:08.443Z,99098.78
2022-12-01T12:30:22.135Z,99088.59
2022-12-01T12:33:53.769Z,99086.69
2022-12-01T12:37:06.264Z,99087.78
2022-12-01T12:40:32.725Z,99080.16
2022-12-01T12:43:42.918Z,99084.00
2022-12-01T12:46:53.718Z,99072.41
2022-12-01T12:50:02.517Z,99077.28
2022-12-01T12:53:13.591Z,99069.69
2022-12-01T12:56:18.864Z,99078.13
2022-12-01T12:59:24.403Z,99071.78
2022-12-01T13:02:30.920Z,99081.56
2022-12-01T13:05:37.753Z,99079.69
2022-12-01T13:08:45.904Z,99081.03
2022-12-01T13:11:51.418Z,99075.66
2022-12-01T13:15:01.017Z,99066.69
2022-12-01T13:18:13.542Z,99074.75
2022-12-01T13:21:18.616Z,99068.81
2022-12-01T13:24:24.992Z,99074.91
2022-12-01T13:27:30.290Z,99071.63
2022-12-01T13:30:33.001Z,99064.50
2022-12-01T13:33:36.307Z,99069.75
2022-12-01T13:36:49.561Z,99069.31
2022-12-01T13:39:55.282Z,99065.03
2022-12-01T13:43:04.243Z,99068.53
2022-12-01T13:46:22.289Z,99068.22
2022-12-01T13:49:42.158Z,99062.72
2022-12-01T13:52:50.196Z,99062.81
2022-12-01T13:56:06.051Z,99068.31
2022-12-01T13:59:39.730Z,99062.28
2022-12-01T14:02:42.886Z,99060.56
2022-12-01T14:05:46.841Z,99065.44
2022-12-01T14:08:49.522Z,99062.44
2022-12-01T14:11:58.525Z,99058.59
2022-12-01T14:15:03.533Z,99065.34
2022-12-01T14:18:08.980Z,99062.13
2022-12-01T14:21:14.117Z,99069.47
2022-12-01T14:24:23.785Z,99064.06
2022-12-01T14:27:36.940Z,99064.97
2022-12-01T14:31:05.187Z,99066.22
2022-12-01T14:34:15.730Z,99065.31
2022-12-01T14:37:25.374Z,99062.41
2022-12-01T14:40:31.686Z,99062.16
2022-12-01T14:43:53.709Z,99057.22
2022-12-01T14:47:01.714Z,99055.50
2022-12-01T14:50:12.104Z,99051.66
2022-12-01T14:53:25.445Z,99051.25
2022-12-01T14:56:29.563Z,99050.38
2022-12-01T14:59:33.888Z,99055.47
2022-12-01T15:02:41.942Z,99051.16
2022-12-01T15:05:45.285Z,99055.00
2022-12-01T15:09:17.726Z,99058.28
2022-12-01T15:12:28.128Z,99055.59
2022-12-01T15:15:32.882Z,99051.50
2022-12-01T15:18:38.065Z,99057.19
2022-12-01T15:21:41.087Z,99056.38
2022-12-01T15:24:45.893Z,99050.97
2022-12-01T15:28:02.945Z,99053.97
2022-12-01T15:31:12.052Z,99055.00
2022-12-01T15:34:17.613Z,99060.38
2022-12-01T15:37:23.236Z,99063.31
2022-12-01T15:43:57.542Z,99061.66
2022-12-01T15:47:01.896Z,99066.25
2022-12-01T15:50:07.310Z,99059.75
2022-12-01T15:53:33.027Z,99063.03
2022-12-01T15:56:37.116Z,99057.88
2022-12-01T15:59:41.332Z,99054.56
2022-12-01T16:02:45.909Z,99059.41
2022-12-01T16:05:49.827Z,99059.69
2022-12-01T16:08:57.688Z,99065.66
2022-12-01T16:12:17.816Z,99065.34
2022-12-01T16:15:22.825Z,99059.13
2022-12-01T16:18:29.697Z,99056.56
2022-12-01T16:21:34.804Z,99056.59
2022-12-01T16:24:43.839Z,99055.28
2022-12-01T16:27:53.531Z,99054.50
2022-12-01T16:30:56.556Z,99052.69
2022-12-01T16:34:18.545Z,99057.56
2022-12-01T16:37:28.057Z,99065.16
2022-12-01T16:40:31.142Z,99060.00
2022-12-01T16:43:33.774Z,99069.16
2022-12-01T16:46:36.910Z,99059.91
2022-12-01T16:49:41.237Z,99061.78
2022-12-01T16:52:45.403Z,99063.38
2022-12-01T16:55:50.660Z,99059.00
2022-12-01T16:58:53.752Z,99070.91
2022-12-01T17:01:57.310Z,99065.63
2022-12-01T17:05:01.600Z,99065.31
2022-12-01T17:08:04.712Z,99066.94
2022-12-01T17:11:07.965Z,99069.13
2022-12-01T17:14:10.985Z,99074.28
2022-12-01T17:17:13.663Z,99060.75
2022-12-01T17:20:17.865Z,99062.16
2022-12-01T17:23:20.699Z,99072.19
2022-12-01T17:26:24.796Z,99061.31
2022-12-01T17:29:28.475Z,99073.03
2022-12-01T17:32:31.119Z,99063.81
2022-12-01T17:35:35.948Z,99051.59
2022-12-01T17:38:39.744Z,99065.91
2022-12-01T17:41:42.257Z,99061.78
2022-12-01T17:44:45.078Z,99056.19
2022-12-01T17:47:47.966Z,99069.13
2022-12-01T17:50:52.123Z,99072.66
2022-12-01T17:53:55.681Z,99071.22
2022-12-01T17:56:58.493Z,99073.69
2022-12-01T18:00:01.651Z,99075.56
2022-12-01T18:03:04.859Z,99079.34
2022-12-01T18:06:09.671Z,99074.50
2022-12-01T18:09:12.621Z,99073.47
2022-12-01T18:12:15.474Z,99079.50
2022-12-01T18:15:18.761Z,99073.75
2022-12-01T18:18:21.562Z,99076.25
2022-12-01T18:21:26.510Z,99079.22
2022-12-01T18:24:29.628Z,99077.34
2022-12-01T18:27:32.659Z,99069.78
2022-12-01T18:30:35.512Z,99074.09
2022-12-01T18:33:41.755Z,99066.03
2022-12-01T18:36:47.124Z,99059.50
2022-12-01T18:39:50.613Z,99055.63
2022-12-01T18:42:53.443Z,99061.25
2022-12-01T18:45:56.790Z,99056.09
2022-12-01T18:49:02.274Z,99053.41
2022-12-01T18:52:06.917Z,99049.88
2022-12-01T18:55:10.746Z,99046.94
2022-12-01T18:58:13.547Z,99047.50
2022-12-01T19:01:21.358Z,99049.09
2022-12-01T19:04:24.690Z,99040.34
2022-12-01T19:07:30.149Z,99045.50
2022-12-01T19:10:33.398Z,99045.81
2022-12-01T19:13:36.886Z,99053.94
2022-12-01T19:16:41.004Z,99047.25
2022-12-01T19:19:43.851Z,99052.59
2022-12-01T19:22:48.351Z,99048.25
2022-12-01T19:25:51.195Z,99049.88
2022-12-01T19:28:54.192Z,99041.44
2022-12-01T19:31:57.206Z,99054.81
2022-12-01T19:35:00.367Z,99042.69
2022-12-01T19:38:04.654Z,99044.78
2022-12-01T19:41:08.433Z,99042.06
2022-12-01T19:44:11.399Z,99044.88
2022-12-01T19:47:17.800Z,99044.28
2022-12-01T19:50:25.121Z,99049.91
2022-12-01T19:53:33.506Z,99044.53
2022-12-01T19:56:36.636Z,99042.31
2022-12-01T19:59:39.323Z,99054.19
2022-12-01T20:02:41.962Z,99048.28
2022-12-01T20:05:44.720Z,99051.25
2022-12-01T20:08:49.229Z,99042.53
2022-12-01T20:11:52.101Z,99046.06
2022-12-01T20:14:55.528Z,99044.72
2022-12-01T20:17:58.310Z,99047.94
2022-12-01T20:21:09.200Z,99043.00
2022-12-01T20:24:14.890Z,99044.06
2022-12-01T20:27:17.907Z,99049.50
2022-12-01T20:30:21.012Z,99044.13
2022-12-01T20:33:23.985Z,99055.47
2022-12-01T20:36:27.671Z,99043.63
2022-12-01T20:39:34.681Z,99045.75
2022-12-01T20:42:39.584Z,99049.59
2022-12-01T20:45:42.561Z,99047.97
2022-12-01T20:48:45.539Z,99056.09
2022-12-01T20:51:48.427Z,99047.97
2022-12-01T20:54:52.839Z,99043.66
2022-12-01T20:57:55.589Z,99047.44
2022-12-01T21:00:58.655Z,99046.72
2022-12-01T21:04:01.710Z,99044.75
2022-12-01T21:07:04.736Z,99042.81
2022-12-01T21:10:09.711Z,99037.91
2022-12-01T21:13:36.748Z,99038.22
2022-12-01T21:16:40.361Z,99037.94
2022-12-01T21:19:47.245Z,99035.50
2022-12-01T21:22:51.364Z,99033.03
2022-12-01T21:25:56.348Z,99031.09
2022-12-01T21:29:00.572Z,99032.16
2022-12-01T21:32:11.595Z,99027.56
2022-12-01T21:35:19.826Z,99026.75
2022-12-01T21:38:22.726Z,99027.22
2022-12-01T21:41:27.969Z,99023.81
2022-12-01T21:44:34.287Z,99025.72
2022-12-01T21:47:37.275Z,99027.97
2022-12-01T21:50:40.473Z,99025.19
2022-12-01T21:53:43.392Z,99020.88
2022-12-01T21:56:49.182Z,99027.34
2022-12-01T21:59:52.827Z,99022.50
2022-12-01T22:03:05.371Z,99015.72
2022-12-01T22:06:32.217Z,99013.78
2022-12-01T22:09:35.984Z,99008.06
2022-12-01T22:12:40.074Z,99014.28
2022-12-01T22:15:42.945Z,99011.06
2022-12-01T22:18:47.834Z,99009.41
2022-12-01T22:21:51.787Z,99010.19
2022-12-01T22:24:58.818Z,99005.06
2022-12-01T22:28:04.307Z,99003.94
2022-12-01T22:31:13.562Z,99006.94
2022-12-01T22:34:17.507Z,99002.53
2022-12-01T22:37:21.991Z,99004.25
2022-12-01T22:40:41.647Z,99007.16
2022-12-01T22:43:48.049Z,99000.94
2022-12-01T22:46:51.567Z,99001.50
2022-12-01T22:49:55.450Z,99000.16
2022-12-01T22:53:01.753Z,98996.91
2022-12-01T22:56:17.365Z,98992.56
2022-12-01T22:59:24.223Z,98998.38
2022-12-01T23:02:32.781Z,98999.19
2022-12-01T23:05:35.464Z,98998.06
2022-12-01T23:08:38.806Z,98993.19
2022-12-01T23:11:43.423Z,98990.53
2022-12-01T23:14:49.756Z,98990.97
2022-12-01T23:17:52.838Z,98990.19
2022-12-01T23:20:56.748Z,98979.09
2022-12-01T23:23:59.369Z,98983.97
2022-12-01T23:27:02.143Z,98981.41
2022-12-01T23:30:07.271Z,98977.47
2022-12-01T23:33:20.440Z,98982.94
2022-12-01T23:36:24.882Z,98972.94
2022-12-01T23:39:33.939Z,98980.22
2022-12-01T23:42:36.568Z,98967.47
2022-12-01T23:45:40.500Z,98971.22
2022-12-01T23:48:45.456Z,98967.97
2022-12-01T23:51:49.736Z,98971.53
2022-12-01T23:54:52.712Z,98968.88
2022-12-01T23:57:56.278Z,98964.09
